Time;durP1;ratioP1;P1;durP2;ratioP2;P2;SDS_P1;SDS_P2;PMS_P1;PMS_P2;Temp;Humidity;BMP_temperature;BMP_pressure;BME280_temperature;BME280_humidity;BME280_pressure;Samples;Min_cycle;Max_cycle;Signal;HPM_P1;HPM_P2
2021/10/06 00:01:54;;;;;;;7.88;5.32;;;;;;;;;;4933572;29;20043;-78
2021/10/06 00:04:21;;;;;;;6.45;4.70;;;;;;;;;;4933406;29;20036;-77
2021/10/06 00:06:47;;;;;;;7.47;5.20;;;;;;;;;;4933396;29;20046;-76
2021/10/06 00:09:13;;;;;;;6.40;4.88;;;;;;;;;;4916610;29;20040;-76
2021/10/06 00:11:39;;;;;;;4.45;3.45;;;;;;;;;;4932844;29;20038;-77
2021/10/06 00:14:05;;;;;;;6.00;4.18;;;;;;;;;;4916445;29;20087;-77
2021/10/06 00:16:31;;;;;;;10.10;6.38;;;;;;;;;;4934054;29;20043;-77
2021/10/06 00:18:56;;;;;;;9.38;6.07;;;;;;;;;;4935311;29;20136;-77
2021/10/06 00:21:22;;;;;;;11.00;4.93;;;;;;;;;;4919931;29;20043;-77
2021/10/06 00:23:47;;;;;;;7.00;4.93;;;;;;;;;;4936811;29;20505;-77
2021/10/06 00:26:13;;;;;;;6.95;6.25;;;;;;;;;;4919273;29;20036;-76
2021/10/06 00:28:38;;;;;;;9.18;4.07;;;;;;;;;;4936810;29;20031;-77
2021/10/06 00:31:04;;;;;;;4.97;3.72;;;;;;;;;;4919578;29;20036;-77
2021/10/06 00:33:29;;;;;;;6.93;3.90;;;;;;;;;;4936362;29;20032;-76
2021/10/06 00:35:56;;;;;;;7.88;6.63;;;;;;;;;;4936850;29;20046;-78
2021/10/06 00:38:22;;;;;;;9.82;4.85;;;;;;;;;;4936848;29;20070;-76
2021/10/06 00:40:51;;;;;;;8.00;5.97;;;;;;;;;;4936168;29;20123;-77
2021/10/06 00:43:17;;;;;;;12.93;4.68;;;;;;;;;;4930166;29;20050;-77
2021/10/06 00:45:43;;;;;;;11.55;7.60;;;;;;;;;;4917608;29;20044;-77
2021/10/06 00:48:09;;;;;;;7.32;4.43;;;;;;;;;;4916974;29;20032;-79
2021/10/06 00:50:34;;;;;;;7.68;4.35;;;;;;;;;;4917330;29;20106;-76
2021/10/06 00:53:00;;;;;;;8.98;4.90;;;;;;;;;;4917599;29;20512;-76
2021/10/06 00:55:25;;;;;;;8.02;4.72;;;;;;;;;;4916655;29;20036;-79
2021/10/06 00:57:51;;;;;;;8.00;3.75;;;;;;;;;;4917825;29;20043;-75
2021/10/06 01:00:16;;;;;;;7.78;4.68;;;;;;;;;;4916066;29;20032;-75
2021/10/06 01:02:42;;;;;;;11.07;5.22;;;;;;;;;;4917510;29;20032;-76
2021/10/06 01:05:08;;;;;;;10.02;4.63;;;;;;;;;;4916988;29;20032;-77
2021/10/06 01:07:34;;;;;;;7.50;4.78;;;;;;;;;;4917078;29;20044;-77
2021/10/06 01:10:05;;;;;;;8.45;4.50;;;;;;;;;;4916844;29;20032;-76
2021/10/06 01:12:31;;;;;;;9.93;5.82;;;;;;;;;;4899657;29;20048;-76
2021/10/06 01:14:58;;;;;;;7.78;4.50;;;;;;;;;;4916811;29;20043;-75
2021/10/06 01:17:23;;;;;;;7.95;4.55;;;;;;;;;;4917253;29;20036;-76
2021/10/06 01:19:49;;;;;;;9.77;6.72;;;;;;;;;;4916718;29;20107;-75
2021/10/06 01:22:15;;;;;;;6.82;4.25;;;;;;;;;;4916438;29;20132;-76
2021/10/06 01:24:41;;;;;;;6.60;4.43;;;;;;;;;;4915287;29;20491;-75
2021/10/06 01:27:06;;;;;;;10.50;7.07;;;;;;;;;;4915963;29;20092;-76
2021/10/06 01:29:31;;;;;;;10.70;5.43;;;;;;;;;;4915797;29;20036;-75
2021/10/06 01:31:57;;;;;;;8.98;6.70;;;;;;;;;;4916138;29;20040;-76
2021/10/06 01:34:23;;;;;;;9.05;4.10;;;;;;;;;;4916083;29;20035;-76
2021/10/06 01:36:52;;;;;;;9.05;6.90;;;;;;;;;;4916978;29;20489;-77
2021/10/06 01:39:19;;;;;;;8.73;5.05;;;;;;;;;;4917037;29;20535;-77
2021/10/06 01:41:45;;;;;;;7.28;3.78;;;;;;;;;;4916433;29;20139;-75
2021/10/06 01:44:15;;;;;;;8.32;4.60;;;;;;;;;;4930094;29;20046;-76
2021/10/06 01:46:41;;;;;;;8.68;7.50;;;;;;;;;;4934100;29;20413;-75
2021/10/06 01:49:06;;;;;;;7.53;4.25;;;;;;;;;;4934957;29;20040;-76
2021/10/06 01:51:32;;;;;;;8.10;5.15;;;;;;;;;;4935394;29;20036;-75
2021/10/06 01:53:57;;;;;;;7.90;5.07;;;;;;;;;;4935090;29;20035;-74
2021/10/06 01:56:23;;;;;;;9.98;4.55;;;;;;;;;;4935386;29;20054;-76
2021/10/06 01:58:49;;;;;;;10.07;5.30;;;;;;;;;;4935679;29;20118;-78
2021/10/06 02:01:16;;;;;;;7.43;5.38;;;;;;;;;;4918439;29;20040;-75
2021/10/06 02:03:42;;;;;;;8.07;5.32;;;;;;;;;;4934646;29;20027;-75
2021/10/06 02:06:07;;;;;;;9.80;4.70;;;;;;;;;;4934944;29;20032;-75
2021/10/06 02:08:33;;;;;;;9.15;5.45;;;;;;;;;;4934869;29;20533;-75
2021/10/06 02:10:58;;;;;;;9.52;6.28;;;;;;;;;;4933996;29;20067;-76
2021/10/06 02:13:24;;;;;;;6.35;5.03;;;;;;;;;;4934947;29;20398;-77
2021/10/06 02:15:49;;;;;;;8.57;6.55;;;;;;;;;;4934509;29;20047;-75
2021/10/06 02:18:14;;;;;;;8.15;4.80;;;;;;;;;;4934427;29;20067;-76
2021/10/06 02:20:40;;;;;;;12.63;6.05;;;;;;;;;;4934637;29;20071;-76
2021/10/06 02:23:05;;;;;;;10.88;5.60;;;;;;;;;;4934959;29;20603;-76
2021/10/06 02:25:31;;;;;;;9.40;6.43;;;;;;;;;;4934154;29;20047;-76
2021/10/06 02:27:56;;;;;;;11.77;6.38;;;;;;;;;;4934474;29;20390;-76
2021/10/06 02:30:22;;;;;;;14.73;10.00;;;;;;;;;;4932927;29;20142;-75
2021/10/06 02:32:47;;;;;;;9.50;6.85;;;;;;;;;;4933400;29;20065;-75
2021/10/06 02:35:13;;;;;;;11.65;6.63;;;;;;;;;;4934257;29;20031;-76
2021/10/06 02:37:40;;;;;;;10.48;7.78;;;;;;;;;;4933840;29;20449;-76
2021/10/06 02:40:12;;;;;;;14.60;9.18;;;;;;;;;;4934263;29;20043;-76
2021/10/06 02:42:38;;;;;;;13.38;7.88;;;;;;;;;;4916500;29;20076;-77
2021/10/06 02:45:06;;;;;;;9.65;5.28;;;;;;;;;;4915291;29;20043;-76
2021/10/06 02:47:32;;;;;;;10.65;8.27;;;;;;;;;;4914925;29;20135;-78
2021/10/06 02:49:58;;;;;;;8.77;5.38;;;;;;;;;;4915317;29;20537;-76
2021/10/06 02:52:23;;;;;;;8.52;6.18;;;;;;;;;;4914967;29;20414;-76
2021/10/06 02:54:48;;;;;;;9.27;5.93;;;;;;;;;;4914764;29;20410;-75
2021/10/06 02:57:14;;;;;;;9.88;5.70;;;;;;;;;;4914845;29;20501;-77
2021/10/06 02:59:39;;;;;;;8.13;6.53;;;;;;;;;;4913828;29;20414;-77
2021/10/06 03:02:05;;;;;;;8.70;7.82;;;;;;;;;;4914459;29;20072;-75
2021/10/06 03:04:31;;;;;;;8.82;4.82;;;;;;;;;;4897925;29;20391;-77
2021/10/06 03:06:56;;;;;;;7.00;4.78;;;;;;;;;;4915147;29;20040;-76
2021/10/06 03:09:21;;;;;;;9.48;5.63;;;;;;;;;;4914546;29;20047;-76
2021/10/06 03:11:47;;;;;;;8.57;6.05;;;;;;;;;;4915104;29;20123;-76
2021/10/06 03:14:12;;;;;;;13.00;6.82;;;;;;;;;;4915581;29;20545;-79
2021/10/06 03:16:40;;;;;;;6.85;5.68;;;;;;;;;;4898438;29;20039;-77
2021/10/06 03:19:08;;;;;;;8.88;6.28;;;;;;;;;;4897866;29;20051;-81
2021/10/06 03:21:34;;;;;;;9.85;8.85;;;;;;;;;;4897615;29;20039;-76
2021/10/06 03:23:59;;;;;;;10.95;7.25;;;;;;;;;;4914479;29;20048;-78
2021/10/06 03:26:24;;;;;;;10.35;6.53;;;;;;;;;;4914848;29;20501;-76
2021/10/06 03:28:50;;;;;;;10.32;5.45;;;;;;;;;;4915191;29;20126;-77
2021/10/06 03:31:15;;;;;;;8.48;6.03;;;;;;;;;;4914566;29;20066;-77
2021/10/06 03:33:42;;;;;;;9.82;6.95;;;;;;;;;;4914586;29;20067;-80
2021/10/06 03:36:08;;;;;;;10.68;7.05;;;;;;;;;;4897869;29;20040;-77
2021/10/06 03:38:33;;;;;;;9.55;5.78;;;;;;;;;;4914119;29;20040;-77
2021/10/06 03:40:59;;;;;;;10.02;6.65;;;;;;;;;;4914564;29;20140;-77
2021/10/06 03:43:27;;;;;;;10.98;7.50;;;;;;;;;;4922239;29;20032;-76
2021/10/06 03:45:52;;;;;;;9.80;6.32;;;;;;;;;;4933326;29;20043;-76
2021/10/06 03:48:18;;;;;;;7.07;5.72;;;;;;;;;;4932502;29;20461;-76
2021/10/06 03:50:45;;;;;;;8.95;5.05;;;;;;;;;;4933576;29;20040;-78
2021/10/06 03:53:12;;;;;;;13.80;9.10;;;;;;;;;;4936215;29;20438;-79
2021/10/06 03:55:38;;;;;;;10.02;6.82;;;;;;;;;;4935808;29;20507;-77
2021/10/06 03:58:03;;;;;;;8.82;6.05;;;;;;;;;;4937516;29;20035;-77
2021/10/06 04:00:31;;;;;;;7.45;5.72;;;;;;;;;;4936477;29;20119;-76
2021/10/06 04:02:56;;;;;;;7.95;5.55;;;;;;;;;;4935675;29;20035;-76
2021/10/06 04:05:21;;;;;;;9.52;6.90;;;;;;;;;;4937701;29;20031;-69
2021/10/06 04:07:47;;;;;;;7.55;4.57;;;;;;;;;;4936548;29;20036;-70
2021/10/06 04:10:13;;;;;;;6.20;5.38;;;;;;;;;;4936988;29;20832;-78
2021/10/06 04:12:38;;;;;;;8.77;5.38;;;;;;;;;;4937026;29;20035;-78
2021/10/06 04:15:04;;;;;;;9.45;6.43;;;;;;;;;;4936978;29;20126;-78
2021/10/06 04:17:30;;;;;;;8.75;5.63;;;;;;;;;;4936393;29;20043;-77
2021/10/06 04:19:55;;;;;;;8.30;5.57;;;;;;;;;;4936922;29;20044;-78
2021/10/06 04:22:20;;;;;;;6.88;5.80;;;;;;;;;;4936794;29;20524;-78
2021/10/06 04:24:46;;;;;;;7.50;5.55;;;;;;;;;;4935815;29;20071;-78
2021/10/06 04:27:11;;;;;;;9.57;7.07;;;;;;;;;;4936619;29;20082;-77
2021/10/06 04:29:37;;;;;;;8.75;7.82;;;;;;;;;;4936520;29;20042;-78
2021/10/06 04:32:03;;;;;;;7.25;5.78;;;;;;;;;;4935838;29;20090;-76
2021/10/06 04:34:30;;;;;;;9.73;6.40;;;;;;;;;;4936417;29;20425;-77
2021/10/06 04:36:56;;;;;;;7.18;5.05;;;;;;;;;;4919005;29;20038;-77
2021/10/06 04:39:22;;;;;;;9.23;5.65;;;;;;;;;;4936211;29;20039;-78
2021/10/06 04:41:47;;;;;;;8.88;6.32;;;;;;;;;;4935876;29;20123;-77
2021/10/06 04:44:14;;;;;;;12.05;6.55;;;;;;;;;;4921974;29;20524;-77
2021/10/06 04:46:40;;;;;;;8.45;6.63;;;;;;;;;;4899572;29;20040;-78
2021/10/06 04:49:11;;;;;;;10.77;6.03;;;;;;;;;;4917752;29;20035;-77
2021/10/06 04:51:36;;;;;;;9.73;6.05;;;;;;;;;;4916803;29;20451;-78
2021/10/06 04:54:02;;;;;;;11.15;6.72;;;;;;;;;;4899904;29;20079;-77
2021/10/06 04:56:28;;;;;;;10.85;6.25;;;;;;;;;;4917000;29;20063;-77
2021/10/06 04:58:54;;;;;;;9.88;5.72;;;;;;;;;;4900105;29;20028;-79
2021/10/06 05:01:19;;;;;;;9.35;6.55;;;;;;;;;;4916852;29;20043;-79
2021/10/06 05:03:45;;;;;;;15.20;7.28;;;;;;;;;;4916200;29;20482;-79
2021/10/06 05:06:10;;;;;;;11.43;6.55;;;;;;;;;;4900264;29;20040;-78
2021/10/06 05:08:37;;;;;;;6.53;5.53;;;;;;;;;;4916298;29;20421;-78
2021/10/06 05:11:05;;;;;;;10.90;7.65;;;;;;;;;;4916645;29;20032;-78
2021/10/06 05:13:30;;;;;;;9.85;6.47;;;;;;;;;;4900066;29;20063;-79
2021/10/06 05:15:56;;;;;;;10.35;7.05;;;;;;;;;;4898617;29;20698;-78
2021/10/06 05:18:21;;;;;;;8.60;5.55;;;;;;;;;;4917013;29;20040;-78
2021/10/06 05:20:46;;;;;;;11.65;5.57;;;;;;;;;;4917007;29;20047;-79
2021/10/06 05:23:12;;;;;;;16.55;5.78;;;;;;;;;;4915635;29;20497;-79
2021/10/06 05:25:38;;;;;;;12.73;7.43;;;;;;;;;;4916209;29;20036;-78
2021/10/06 05:28:03;;;;;;;10.20;7.53;;;;;;;;;;4915784;29;20036;-78
2021/10/06 05:30:29;;;;;;;16.67;9.00;;;;;;;;;;4916019;29;20504;-79
2021/10/06 05:32:54;;;;;;;9.10;5.43;;;;;;;;;;4915511;29;20421;-80
2021/10/06 05:35:20;;;;;;;10.48;6.30;;;;;;;;;;4916430;29;20481;-79
2021/10/06 05:37:46;;;;;;;7.60;6.35;;;;;;;;;;4915760;29;20040;-80
2021/10/06 05:40:13;;;;;;;12.38;6.07;;;;;;;;;;4915913;29;20044;-80
2021/10/06 05:42:38;;;;;;;8.55;5.57;;;;;;;;;;4917367;29;20498;-78
2021/10/06 05:45:04;;;;;;;8.02;5.85;;;;;;;;;;4934719;29;20083;-78
2021/10/06 05:47:30;;;;;;;12.65;8.07;;;;;;;;;;4934880;29;20379;-79
2021/10/06 05:49:55;;;;;;;9.98;6.40;;;;;;;;;;4935324;29;20038;-80
2021/10/06 05:52:22;;;;;;;8.75;6.38;;;;;;;;;;4934632;29;20127;-79
2021/10/06 05:54:48;;;;;;;10.02;6.30;;;;;;;;;;4917685;29;20063;-80
2021/10/06 05:57:14;;;;;;;9.73;6.13;;;;;;;;;;4934886;29;20036;-78
2021/10/06 05:59:40;;;;;;;12.55;9.27;;;;;;;;;;4917671;29;20040;-79
2021/10/06 06:02:06;;;;;;;9.15;5.35;;;;;;;;;;4914395;29;20054;-78
2021/10/06 06:04:32;;;;;;;13.13;5.47;;;;;;;;;;4933172;29;20043;-76
2021/10/06 06:06:57;;;;;;;7.28;4.82;;;;;;;;;;4934143;29;20067;-76
2021/10/06 06:09:24;;;;;;;9.38;6.03;;;;;;;;;;4935974;29;20036;-76
2021/10/06 06:11:51;;;;;;;9.27;6.00;;;;;;;;;;4916623;29;20413;-77
2021/10/06 06:14:17;;;;;;;7.38;4.93;;;;;;;;;;4933328;29;20078;-77
2021/10/06 06:16:46;;;;;;;13.35;8.85;;;;;;;;;;4933819;29;20511;-78
2021/10/06 06:19:12;;;;;;;15.45;6.00;;;;;;;;;;4917481;29;20035;-79
2021/10/06 06:21:38;;;;;;;8.95;6.32;;;;;;;;;;4916587;29;20062;-79
2021/10/06 06:24:04;;;;;;;11.95;9.27;;;;;;;;;;4934167;29;20378;-77
2021/10/06 06:26:30;;;;;;;8.93;5.85;;;;;;;;;;4934105;29;20076;-77
2021/10/06 06:28:57;;;;;;;6.25;4.50;;;;;;;;;;4916597;29;20036;-82
2021/10/06 06:31:24;;;;;;;10.13;7.25;;;;;;;;;;4933967;29;20048;-76
2021/10/06 06:33:49;;;;;;;12.38;6.32;;;;;;;;;;4933686;29;20046;-77
2021/10/06 06:36:15;;;;;;;6.70;5.13;;;;;;;;;;4932881;29;20035;-77
2021/10/06 06:38:40;;;;;;;9.32;6.13;;;;;;;;;;4933284;29;20035;-79
2021/10/06 06:41:08;;;;;;;10.93;6.13;;;;;;;;;;4933870;29;20063;-80
2021/10/06 06:43:34;;;;;;;9.50;6.55;;;;;;;;;;4906578;29;20037;-81
2021/10/06 06:46:00;;;;;;;9.18;6.10;;;;;;;;;;4898480;29;20036;-77
2021/10/06 06:48:26;;;;;;;9.85;5.50;;;;;;;;;;4898117;29;20034;-78
2021/10/06 06:50:56;;;;;;;10.63;5.93;;;;;;;;;;4897149;29;20174;-77
2021/10/06 06:53:26;;;;;;;8.35;5.65;;;;;;;;;;4915388;29;20062;-78
2021/10/06 06:55:57;;;;;;;8.35;5.35;;;;;;;;;;4915294;29;20035;-77
2021/10/06 06:58:23;;;;;;;8.70;6.55;;;;;;;;;;4915808;29;20092;-79
2021/10/06 07:00:49;;;;;;;8.82;6.60;;;;;;;;;;4915611;29;20500;-78
2021/10/06 07:03:17;;;;;;;5.55;3.92;;;;;;;;;;4895344;29;20084;-77
2021/10/06 07:05:43;;;;;;;9.75;6.38;;;;;;;;;;4914267;29;20115;-78
2021/10/06 07:08:09;;;;;;;10.68;5.88;;;;;;;;;;4915132;29;20036;-78
2021/10/06 07:10:35;;;;;;;10.50;6.65;;;;;;;;;;4914789;29;20047;-80
2021/10/06 07:13:02;;;;;;;12.15;6.40;;;;;;;;;;4897337;29;20074;-79
2021/10/06 07:15:28;;;;;;;9.68;4.80;;;;;;;;;;4898318;29;20040;-80
2021/10/06 07:17:54;;;;;;;10.13;6.55;;;;;;;;;;4915077;29;20028;-77
2021/10/06 07:20:20;;;;;;;11.13;5.25;;;;;;;;;;4914329;29;20047;-80
2021/10/06 07:22:46;;;;;;;8.40;5.20;;;;;;;;;;4914966;29;20067;-79
2021/10/06 07:25:12;;;;;;;8.38;5.03;;;;;;;;;;4897414;29;20044;-77
2021/10/06 07:27:37;;;;;;;8.65;5.90;;;;;;;;;;4912674;29;20040;-78
2021/10/06 07:30:04;;;;;;;11.25;6.15;;;;;;;;;;4897033;29;20039;-79
2021/10/06 07:32:31;;;;;;;7.47;4.43;;;;;;;;;;4914703;29;20118;-78
2021/10/06 07:34:57;;;;;;;10.82;5.93;;;;;;;;;;4912054;29;20048;-78
2021/10/06 07:37:23;;;;;;;10.90;5.57;;;;;;;;;;4914483;29;20036;-77
2021/10/06 07:39:48;;;;;;;6.57;4.78;;;;;;;;;;4913765;29;20071;-78
2021/10/06 07:42:15;;;;;;;10.10;6.28;;;;;;;;;;4913916;29;20060;-80
2021/10/06 07:44:41;;;;;;;6.95;4.95;;;;;;;;;;4913861;29;20035;-69
2021/10/06 07:47:07;;;;;;;6.75;4.22;;;;;;;;;;4933100;29;20036;-71
2021/10/06 07:49:32;;;;;;;9.45;5.43;;;;;;;;;;4933393;29;20043;-71
2021/10/06 07:51:58;;;;;;;8.45;5.25;;;;;;;;;;4932276;29;20123;-73
2021/10/06 07:54:24;;;;;;;6.82;6.13;;;;;;;;;;4932906;29;20409;-73
2021/10/06 07:56:49;;;;;;;10.93;5.15;;;;;;;;;;4932262;29;20039;-79
2021/10/06 07:59:15;;;;;;;8.50;5.57;;;;;;;;;;4933027;29;20039;-78
2021/10/06 08:01:40;;;;;;;9.80;5.22;;;;;;;;;;4932876;29;20630;-80
2021/10/06 08:04:06;;;;;;;10.82;6.00;;;;;;;;;;4934190;29;20034;-81
2021/10/06 08:06:32;;;;;;;13.68;4.55;;;;;;;;;;4933600;29;20042;-79
2021/10/06 08:08:58;;;;;;;10.43;4.85;;;;;;;;;;4934043;29;20035;-80
2021/10/06 08:11:23;;;;;;;9.80;6.45;;;;;;;;;;4934129;29;20040;-79
2021/10/06 08:13:49;;;;;;;8.38;6.13;;;;;;;;;;4935231;29;20035;-80
2021/10/06 08:16:15;;;;;;;8.68;5.22;;;;;;;;;;4938775;29;20193;-80
2021/10/06 08:18:41;;;;;;;9.35;5.50;;;;;;;;;;4932991;29;20046;-79
2021/10/06 08:21:06;;;;;;;7.32;4.78;;;;;;;;;;4932390;29;20123;-82
2021/10/06 08:23:31;;;;;;;11.23;5.22;;;;;;;;;;4933452;29;20071;-80
2021/10/06 08:25:58;;;;;;;10.85;5.03;;;;;;;;;;4933530;29;20083;-80
2021/10/06 08:28:24;;;;;;;8.52;5.45;;;;;;;;;;4933135;29;20043;-81
2021/10/06 08:30:51;;;;;;;10.13;7.38;;;;;;;;;;4934132;29;20402;-78
2021/10/06 08:33:16;;;;;;;9.88;5.88;;;;;;;;;;4934284;29;20048;-79
2021/10/06 08:35:42;;;;;;;6.60;5.35;;;;;;;;;;4933357;29;20042;-80
2021/10/06 08:38:09;;;;;;;12.43;5.60;;;;;;;;;;4935254;29;20485;-83
2021/10/06 08:40:37;;;;;;;9.27;5.53;;;;;;;;;;4937590;29;20056;-78
2021/10/06 08:43:06;;;;;;;7.10;4.55;;;;;;;;;;4920193;29;20031;-80
2021/10/06 08:45:32;;;;;;;10.02;7.00;;;;;;;;;;4936993;29;20383;-79
2021/10/06 08:48:00;;;;;;;12.07;5.93;;;;;;;;;;4921502;29;20047;-79
2021/10/06 08:50:25;;;;;;;9.75;3.90;;;;;;;;;;4937337;29;20028;-81
2021/10/06 08:52:51;;;;;;;6.10;4.15;;;;;;;;;;4937007;29;20174;-80
2021/10/06 08:55:19;;;;;;;8.55;4.28;;;;;;;;;;4936715;29;20501;-79
2021/10/06 08:57:44;;;;;;;6.85;5.25;;;;;;;;;;4936480;29;20046;-78
2021/10/06 09:00:11;;;;;;;10.95;5.25;;;;;;;;;;4938228;29;20445;-81
2021/10/06 09:02:43;;;;;;;8.43;5.32;;;;;;;;;;4935899;29;20448;-80
2021/10/06 09:05:14;;;;;;;36.30;9.02;;;;;;;;;;4935892;29;20385;-80
2021/10/06 09:07:56;;;;;;;8.82;4.82;;;;;;;;;;4938039;29;20039;-78
2021/10/06 09:10:22;;;;;;;7.40;5.40;;;;;;;;;;4900285;29;20036;-79
2021/10/06 09:12:59;;;;;;;7.57;4.88;;;;;;;;;;4935516;29;20420;-79
2021/10/06 09:15:26;;;;;;;6.85;4.80;;;;;;;;;;4934805;29;20058;-80
2021/10/06 09:17:57;;;;;;;7.22;4.38;;;;;;;;;;4916121;29;20052;-79
2021/10/06 09:20:32;;;;;;;7.85;5.63;;;;;;;;;;4933096;29;20063;-79
2021/10/06 09:23:07;;;;;;;10.93;5.10;;;;;;;;;;4936610;29;20084;-79
2021/10/06 09:25:52;;;;;;;7.47;5.53;;;;;;;;;;4936115;29;20036;-78
2021/10/06 09:28:39;;;;;;;7.05;5.05;;;;;;;;;;4936294;29;20134;-79
2021/10/06 09:31:11;;;;;;;8.13;4.85;;;;;;;;;;4932963;29;20039;-80
2021/10/06 09:33:47;;;;;;;7.80;5.45;;;;;;;;;;4918848;29;20098;-79
2021/10/06 09:36:17;;;;;;;6.78;4.25;;;;;;;;;;4936868;29;20047;-78
2021/10/06 09:39:05;;;;;;;7.82;4.90;;;;;;;;;;4944692;29;20028;-81
2021/10/06 09:41:36;;;;;;;6.38;4.82;;;;;;;;;;4956613;29;20064;-78
2021/10/06 09:44:04;;;;;;;10.10;4.70;;;;;;;;;;4946808;29;20067;-81
2021/10/06 09:46:44;;;;;;;4.47;3.47;;;;;;;;;;4929198;29;20196;-79
2021/10/06 09:49:36;;;;;;;7.03;5.10;;;;;;;;;;4918459;29;20040;-81
2021/10/06 09:52:32;;;;;;;7.95;4.45;;;;;;;;;;4918671;29;20047;-79
2021/10/06 09:55:00;;;;;;;7.47;4.45;;;;;;;;;;4916492;29;20119;-79
2021/10/06 09:57:40;;;;;;;11.27;5.15;;;;;;;;;;4899259;29;20032;-81
2021/10/06 10:00:13;;;;;;;7.53;5.13;;;;;;;;;;4916824;29;20119;-81
2021/10/06 10:02:39;;;;;;;7.82;4.93;;;;;;;;;;4916186;29;20059;-82
2021/10/06 10:05:07;;;;;;;10.10;5.72;;;;;;;;;;4917084;29;20060;-70
2021/10/06 10:10:05;;;;;;;6.82;4.80;;;;;;;;;;5083191;27;1985070;-77
2021/10/06 10:12:31;;;;;;;4.95;3.70;;;;;;;;;;5112710;28;20099;-78
2021/10/06 10:14:56;;;;;;;8.43;4.60;;;;;;;;;;5108007;28;20497;-77
2021/10/06 10:17:23;;;;;;;8.63;4.95;;;;;;;;;;5108240;28;20081;-73
2021/10/06 10:20:00;;;;;;;13.98;4.93;;;;;;;;;;5106983;28;20082;-71
2021/10/06 10:22:29;;;;;;;4.85;3.85;;;;;;;;;;5108223;28;20115;-78
2021/10/06 10:24:54;;;;;;;;;;;;;;;;;;5108377;28;20048;-76
2021/10/06 10:27:22;;;;;;;8.63;4.20;;;;;;;;;;5108286;28;19927;-77
2021/10/06 10:30:05;;;;;;;11.23;5.20;;;;;;;;;;5108435;28;20368;-75
2021/10/06 10:32:45;;;;;;;6.00;5.07;;;;;;;;;;5107783;28;20028;-75
2021/10/06 10:35:15;;;;;;;9.13;4.40;;;;;;;;;;5107879;28;20115;-74
2021/10/06 10:37:49;;;;;;;;;;;;;;;;;;5108124;28;20557;-75
2021/10/06 10:40:33;;;;;;;8.02;4.70;;;;;;;;;;5088742;28;19951;-74
2021/10/06 10:43:06;;;;;;;10.85;3.47;;;;;;;;;;5107088;28;20027;-73
2021/10/06 10:45:47;;;;;;;10.43;3.90;;;;;;;;;;5108006;28;20032;-74
2021/10/06 10:48:24;;;;;;;7.15;4.68;;;;;;;;;;5089060;28;20744;-74
2021/10/06 10:50:50;;;;;;;7.40;4.65;;;;;;;;;;5108177;28;20036;-76
2021/10/06 10:53:20;;;;;;;6.93;4.45;;;;;;;;;;5107824;28;20043;-75
2021/10/06 10:55:52;;;;;;;6.63;4.40;;;;;;;;;;5072160;28;20028;-78
2021/10/06 10:58:36;;;;;;;8.98;3.38;;;;;;;;;;5107726;28;20043;-75
2021/10/06 11:01:07;;;;;;;7.05;4.70;;;;;;;;;;5107508;28;20028;-74
2021/10/06 11:04:07;;;;;;;6.45;4.47;;;;;;;;;;5107474;28;20043;-77
2021/10/06 11:06:34;;;;;;;6.90;4.53;;;;;;;;;;5107943;28;20411;-74
2021/10/06 11:09:00;;;;;;;6.72;4.43;;;;;;;;;;5107059;28;20104;-78
2021/10/06 11:11:25;;;;;;;5.28;3.50;;;;;;;;;;5107150;28;20036;-78
2021/10/06 11:13:52;;;;;;;5.65;3.00;;;;;;;;;;5107574;28;20032;-74
2021/10/06 11:16:18;;;;;;;7.95;4.03;;;;;;;;;;5088927;28;20028;-76
2021/10/06 11:18:46;;;;;;;8.48;4.30;;;;;;;;;;5105999;28;20038;-75
2021/10/06 11:21:31;;;;;;;5.25;3.33;;;;;;;;;;5094548;28;20032;-76
2021/10/06 11:23:57;;;;;;;6.05;4.57;;;;;;;;;;5093077;28;20409;-74
2021/10/06 11:26:28;;;;;;;10.43;4.10;;;;;;;;;;5074604;28;20028;-74
2021/10/06 11:28:55;;;;;;;5.47;4.15;;;;;;;;;;5093135;28;20028;-73
2021/10/06 11:31:26;;;;;;;8.43;3.60;;;;;;;;;;5093336;28;20032;-74
2021/10/06 11:33:51;;;;;;;7.05;3.97;;;;;;;;;;5093444;28;20557;-74
2021/10/06 11:36:26;;;;;;;8.85;3.88;;;;;;;;;;5093098;28;20036;-76
2021/10/06 11:38:57;;;;;;;7.68;4.10;;;;;;;;;;5075211;28;20497;-75
2021/10/06 11:41:23;;;;;;;7.18;3.80;;;;;;;;;;5092256;28;20036;-76
2021/10/06 11:43:54;;;;;;;5.90;4.28;;;;;;;;;;5093113;28;20036;-77
2021/10/06 11:46:33;;;;;;;7.15;4.28;;;;;;;;;;5074819;28;20032;-76
2021/10/06 11:49:01;;;;;;;5.28;3.55;;;;;;;;;;5092505;28;20028;-74
2021/10/06 11:51:56;;;;;;;35.35;5.00;;;;;;;;;;5093046;28;20085;-78
2021/10/06 11:54:25;;;;;;;8.45;4.53;;;;;;;;;;5057616;28;20044;-71
2021/10/06 11:56:53;;;;;;;8.65;3.90;;;;;;;;;;5074396;28;20039;-77
2021/10/06 11:59:23;;;;;;;6.95;4.07;;;;;;;;;;5092796;28;21226;-78
2021/10/06 12:01:57;;;;;;;8.23;4.63;;;;;;;;;;5092137;28;20024;-77
2021/10/06 12:04:25;;;;;;;7.20;3.55;;;;;;;;;;5092870;28;20039;-73
2021/10/06 12:07:04;;;;;;;4.63;3.05;;;;;;;;;;5092169;28;20039;-75
2021/10/06 12:09:36;;;;;;;5.22;3.08;;;;;;;;;;5092531;28;20060;-72
2021/10/06 12:12:08;;;;;;;3.97;3.17;;;;;;;;;;5093302;28;20492;-77
2021/10/06 12:14:40;;;;;;;6.15;3.22;;;;;;;;;;5073618;28;20071;-75
2021/10/06 12:17:10;;;;;;;5.95;3.05;;;;;;;;;;5092370;28;20032;-74
2021/10/06 12:19:36;;;;;;;6.68;3.63;;;;;;;;;;5091883;28;20121;-74
2021/10/06 12:22:03;;;;;;;12.85;4.43;;;;;;;;;;5074201;28;20123;-73
2021/10/06 12:24:29;;;;;;;6.20;4.53;;;;;;;;;;5091594;28;20391;-75
2021/10/06 12:26:55;;;;;;;5.68;4.28;;;;;;;;;;5091764;28;20040;-74
2021/10/06 12:29:25;;;;;;;6.57;3.78;;;;;;;;;;5092325;28;20093;-73
2021/10/06 12:31:55;;;;;;;5.32;3.13;;;;;;;;;;5090825;28;20047;-71
2021/10/06 12:34:23;;;;;;;5.18;3.70;;;;;;;;;;5092595;28;20484;-76
2021/10/06 12:36:52;;;;;;;6.18;3.45;;;;;;;;;;5092843;28;20036;-76
2021/10/06 12:39:26;;;;;;;6.40;4.47;;;;;;;;;;5091732;28;20036;-73
2021/10/06 12:41:55;;;;;;;10.02;3.72;;;;;;;;;;5073783;28;20036;-74
2021/10/06 12:44:32;;;;;;;6.53;2.92;;;;;;;;;;5092181;28;20036;-72
2021/10/06 12:46:59;;;;;;;9.25;3.83;;;;;;;;;;5090913;28;20085;-77
2021/10/06 12:49:27;;;;;;;4.07;2.97;;;;;;;;;;5073252;28;20135;-77
2021/10/06 12:51:59;;;;;;;4.55;3.92;;;;;;;;;;5091408;28;20031;-78
2021/10/06 12:54:33;;;;;;;9.55;4.13;;;;;;;;;;5090889;28;20412;-81
2021/10/06 12:57:05;;;;;;;6.95;3.33;;;;;;;;;;5091699;28;20485;-75
2021/10/06 12:59:37;;;;;;;7.40;3.80;;;;;;;;;;5091267;28;20071;-77
2021/10/06 13:02:09;;;;;;;7.68;3.35;;;;;;;;;;5090713;28;20085;-76
2021/10/06 13:04:36;;;;;;;5.40;3.38;;;;;;;;;;5090689;28;20050;-78
2021/10/06 13:07:03;;;;;;;4.75;3.55;;;;;;;;;;5073349;28;20032;-76
2021/10/06 13:09:29;;;;;;;2.88;2.45;;;;;;;;;;5090993;28;20059;-79
2021/10/06 13:11:56;;;;;;;5.32;3.75;;;;;;;;;;5090979;28;20036;-79
2021/10/06 13:14:22;;;;;;;6.68;3.50;;;;;;;;;;5072712;28;20028;-78
2021/10/06 13:16:48;;;;;;;6.75;3.40;;;;;;;;;;5090771;28;20038;-79
2021/10/06 13:19:15;;;;;;;6.65;3.97;;;;;;;;;;5089976;28;20036;-79
2021/10/06 13:21:42;;;;;;;4.35;3.65;;;;;;;;;;5072618;28;20034;-80
2021/10/06 13:24:08;;;;;;;4.93;4.20;;;;;;;;;;5090691;28;20229;-80
2021/10/06 13:26:34;;;;;;;4.70;2.53;;;;;;;;;;5090691;28;20032;-76
2021/10/06 13:29:01;;;;;;;6.90;3.45;;;;;;;;;;5090445;28;20168;-74
2021/10/06 13:31:27;;;;;;;6.95;3.22;;;;;;;;;;5071840;28;20085;-77
2021/10/06 13:33:52;;;;;;;5.00;3.25;;;;;;;;;;5090004;28;20043;-74
2021/10/06 13:36:18;;;;;;;4.18;3.75;;;;;;;;;;5090779;28;20404;-76
2021/10/06 13:38:44;;;;;;;6.22;3.40;;;;;;;;;;5090285;28;20400;-79
2021/10/06 13:41:11;;;;;;;11.75;4.95;;;;;;;;;;5091223;28;20028;-78
2021/10/06 13:43:37;;;;;;;6.93;3.50;;;;;;;;;;5090550;28;20164;-72
2021/10/06 13:46:04;;;;;;;4.57;2.90;;;;;;;;;;5105730;28;20126;-73
2021/10/06 13:48:33;;;;;;;8.80;2.63;;;;;;;;;;5090596;28;20032;-74
2021/10/06 13:50:58;;;;;;;7.05;3.17;;;;;;;;;;5072760;28;20065;-75
2021/10/06 13:53:23;;;;;;;5.13;2.60;;;;;;;;;;5090413;28;20031;-75
2021/10/06 13:55:49;;;;;;;7.72;3.83;;;;;;;;;;5091087;28;20035;-73
2021/10/06 13:58:15;;;;;;;5.75;3.38;;;;;;;;;;5072399;28;20097;-74
2021/10/06 14:00:41;;;;;;;4.88;2.55;;;;;;;;;;5090386;28;20042;-75
2021/10/06 14:03:06;;;;;;;4.32;3.17;;;;;;;;;;5090252;28;20054;-74
2021/10/06 14:05:32;;;;;;;8.70;5.07;;;;;;;;;;5090783;28;20374;-75
2021/10/06 14:07:58;;;;;;;7.50;3.10;;;;;;;;;;5090076;28;20032;-75
2021/10/06 14:10:24;;;;;;;7.38;3.67;;;;;;;;;;5090865;28;20105;-74
2021/10/06 14:12:51;;;;;;;4.50;3.35;;;;;;;;;;5091013;28;20126;-73
2021/10/06 14:15:17;;;;;;;9.50;4.05;;;;;;;;;;5071566;28;20440;-75
2021/10/06 14:17:42;;;;;;;3.58;2.80;;;;;;;;;;5090443;28;20040;-76
2021/10/06 14:20:09;;;;;;;6.95;3.10;;;;;;;;;;5090103;28;20036;-76
2021/10/06 14:22:38;;;;;;;5.72;3.20;;;;;;;;;;5089785;28;20488;-74
2021/10/06 14:25:04;;;;;;;10.63;3.70;;;;;;;;;;5090399;28;20032;-76
2021/10/06 14:27:30;;;;;;;8.30;3.95;;;;;;;;;;5090840;28;20088;-72
2021/10/06 14:29:55;;;;;;;5.85;3.35;;;;;;;;;;5089836;28;20036;-71
2021/10/06 14:32:21;;;;;;;4.72;2.97;;;;;;;;;;5091317;28;20092;-72
2021/10/06 14:34:46;;;;;;;4.38;3.42;;;;;;;;;;5089734;28;20076;-73
2021/10/06 14:37:12;;;;;;;4.68;3.08;;;;;;;;;;5089679;28;20035;-75
2021/10/06 14:39:37;;;;;;;6.38;3.00;;;;;;;;;;5088679;28;20032;-70
2021/10/06 14:42:03;;;;;;;4.40;3.80;;;;;;;;;;5090114;28;20521;-69
2021/10/06 14:44:28;;;;;;;6.03;3.20;;;;;;;;;;5088616;28;20609;-70
2021/10/06 14:46:54;;;;;;;4.93;3.50;;;;;;;;;;5090437;28;20561;-69